createdAt,value
2023-07-25T00:00:41.926Z,17.00
2023-07-25T00:03:14.746Z,17.00
2023-07-25T00:05:44.988Z,17.00
2023-07-25T00:08:15.188Z,17.00
2023-07-25T00:10:45.534Z,17.00
2023-07-25T00:13:15.706Z,17.00
2023-07-25T00:15:46.144Z,17.00
2023-07-25T00:18:19.018Z,17.00
2023-07-25T00:20:49.358Z,17.00
2023-07-25T00:23:19.614Z,17.00
2023-07-25T00:25:50.056Z,17.00
2023-07-25T00:28:20.311Z,17.00
2023-07-25T00:30:50.654Z,17.00
2023-07-25T00:33:23.498Z,17.10
2023-07-25T00:35:56.863Z,17.10
2023-07-25T00:38:27.087Z,17.10
2023-07-25T00:40:57.336Z,17.10
2023-07-25T00:43:27.535Z,17.10
2023-07-25T00:45:58.143Z,17.00
2023-07-25T00:48:32.140Z,17.10
2023-07-25T00:51:02.666Z,17.10
2023-07-25T00:53:35.057Z,17.10
2023-07-25T00:56:05.458Z,17.10
2023-07-25T00:58:35.708Z,17.10
2023-07-25T01:01:06.907Z,17.00
2023-07-25T01:03:42.387Z,17.10
2023-07-25T01:06:16.318Z,17.10
2023-07-25T01:08:53.259Z,17.10
2023-07-25T01:11:24.160Z,17.00
2023-07-25T01:13:54.944Z,17.00
2023-07-25T01:16:27.219Z,17.00
2023-07-25T01:19:01.652Z,17.00
2023-07-25T01:21:32.576Z,17.00
2023-07-25T01:24:06.882Z,17.00
2023-07-25T01:26:37.120Z,17.00
2023-07-25T01:29:07.357Z,17.00
2023-07-25T01:31:37.600Z,17.10
2023-07-25T01:34:07.864Z,17.10
2023-07-25T01:36:38.239Z,17.10
2023-07-25T01:39:11.671Z,17.10
2023-07-25T01:41:43.582Z,17.10
2023-07-25T01:44:13.724Z,17.10
2023-07-25T01:46:44.936Z,17.10
2023-07-25T01:49:15.667Z,17.00
2023-07-25T01:51:46.179Z,17.00
2023-07-25T01:54:19.749Z,17.10
2023-07-25T01:56:50.824Z,17.10
2023-07-25T01:59:21.452Z,17.00
2023-07-25T02:01:51.654Z,17.00
2023-07-25T02:04:21.933Z,16.90
2023-07-25T02:06:52.263Z,17.00
2023-07-25T02:09:25.028Z,16.90
2023-07-25T02:11:55.432Z,17.00
2023-07-25T02:14:25.882Z,16.90
2023-07-25T02:16:57.078Z,16.90
2023-07-25T02:19:27.302Z,16.90
2023-07-25T02:21:57.659Z,16.90
2023-07-25T02:24:30.528Z,16.90
2023-07-25T02:27:01.121Z,16.90
2023-07-25T02:29:31.335Z,16.90
2023-07-25T02:32:01.774Z,16.80
2023-07-25T02:34:32.016Z,16.80
2023-07-25T02:37:02.286Z,16.80
2023-07-25T02:39:35.128Z,16.80
2023-07-25T02:42:05.513Z,16.80
2023-07-25T02:44:35.725Z,16.80
2023-07-25T02:47:06.599Z,16.80
2023-07-25T02:49:36.793Z,16.80
2023-07-25T02:52:07.872Z,16.90
2023-07-25T02:54:40.686Z,16.90
2023-07-25T02:57:11.330Z,16.80
2023-07-25T02:59:41.558Z,16.80
2023-07-25T03:02:11.836Z,16.80
2023-07-25T03:04:42.051Z,16.70
2023-07-25T03:07:12.488Z,16.70
2023-07-25T03:09:45.569Z,16.70
2023-07-25T03:12:16.055Z,16.70
2023-07-25T03:14:46.273Z,16.70
2023-07-25T03:17:16.463Z,16.70
2023-07-25T03:19:46.728Z,16.60
2023-07-25T03:22:16.958Z,16.60
2023-07-25T03:24:49.874Z,16.60
2023-07-25T03:27:21.048Z,16.50
2023-07-25T03:29:51.255Z,16.50
2023-07-25T03:32:21.486Z,16.60
2023-07-25T03:34:51.649Z,16.70
2023-07-25T03:37:21.900Z,16.80
2023-07-25T03:39:54.717Z,17.00
2023-07-25T03:42:24.953Z,17.30
2023-07-25T03:44:55.781Z,17.40
2023-07-25T03:47:26.252Z,17.70
2023-07-25T03:49:56.429Z,17.90
2023-07-25T03:52:26.796Z,17.90
2023-07-25T03:54:59.601Z,17.90
2023-07-25T03:57:29.876Z,17.80
2023-07-25T04:00:00.114Z,17.60
2023-07-25T04:02:30.351Z,17.30
2023-07-25T04:05:00.805Z,17.20
2023-07-25T04:07:31.227Z,17.00
2023-07-25T04:10:04.319Z,16.90
2023-07-25T04:12:34.665Z,16.80
2023-07-25T04:15:04.845Z,16.80
2023-07-25T04:17:35.079Z,16.80
2023-07-25T04:20:05.415Z,16.70
2023-07-25T04:22:35.617Z,16.70
2023-07-25T04:25:09.528Z,16.70
2023-07-25T04:27:39.750Z,16.70
2023-07-25T04:30:11.307Z,16.70
2023-07-25T04:32:41.765Z,16.60
2023-07-25T04:35:12.608Z,16.60
2023-07-25T04:37:42.547Z,16.60
2023-07-25T04:40:16.529Z,16.60
2023-07-25T04:42:46.957Z,16.70
2023-07-25T04:45:17.167Z,17.00
2023-07-25T04:47:47.537Z,17.30
2023-07-25T04:50:18.213Z,17.30
2023-07-25T04:52:48.433Z,17.30
2023-07-25T04:55:21.393Z,17.10
2023-07-25T04:57:53.331Z,17.00
2023-07-25T05:00:23.805Z,17.00
2023-07-25T05:02:54.303Z,16.90
2023-07-25T05:05:24.527Z,16.90
2023-07-25T05:07:55.161Z,16.90
2023-07-25T05:10:28.046Z,16.90
2023-07-25T05:12:58.393Z,16.90
2023-07-25T05:15:28.684Z,16.90
2023-07-25T05:17:59.060Z,17.00
2023-07-25T05:20:29.454Z,17.00
2023-07-25T05:23:00.017Z,17.00
2023-07-25T05:25:32.858Z,17.00
2023-07-25T05:28:03.483Z,17.10
2023-07-25T05:30:33.682Z,17.10
2023-07-25T05:33:04.883Z,17.30
2023-07-25T05:35:35.153Z,17.40
2023-07-25T05:38:09.479Z,17.50
2023-07-25T05:40:42.333Z,17.60
2023-07-25T05:43:16.530Z,17.80
2023-07-25T05:45:46.753Z,18.00
2023-07-25T05:48:17.055Z,18.10
2023-07-25T05:50:47.302Z,18.20
2023-07-25T05:53:17.525Z,18.40
2023-07-25T05:55:51.021Z,18.40
2023-07-25T05:58:21.683Z,18.60
2023-07-25T06:00:52.472Z,18.90
2023-07-25T06:03:23.130Z,19.00
2023-07-25T06:05:53.378Z,19.10
2023-07-25T06:08:23.628Z,19.10
2023-07-25T06:10:56.795Z,19.10
2023-07-25T06:13:27.384Z,19.10
2023-07-25T06:15:58.064Z,19.30
2023-07-25T06:18:28.517Z,19.30
2023-07-25T06:20:59.128Z,19.30
2023-07-25T06:23:29.470Z,19.50
2023-07-25T06:26:02.294Z,19.50
2023-07-25T06:28:32.575Z,19.60
2023-07-25T06:31:04.016Z,19.60
2023-07-25T06:33:34.433Z,19.70
2023-07-25T06:38:35.518Z,19.80
2023-07-25T06:41:08.268Z,19.80
2023-07-25T06:43:38.613Z,19.80
2023-07-25T06:46:08.810Z,19.90
2023-07-25T06:48:39.081Z,19.90
2023-07-25T06:51:09.257Z,19.90
2023-07-25T06:53:39.468Z,19.90
2023-07-25T06:56:12.194Z,20.00
2023-07-25T06:58:42.567Z,20.10
2023-07-25T07:01:12.761Z,20.20
2023-07-25T07:03:43.097Z,20.50
2023-07-25T07:06:13.225Z,20.60
2023-07-25T07:08:43.539Z,20.70
2023-07-25T07:11:16.416Z,20.80
2023-07-25T07:13:46.628Z,20.70
2023-07-25T07:18:47.664Z,20.70
2023-07-25T07:21:17.537Z,20.60
2023-07-25T07:23:49.265Z,20.50
2023-07-25T07:26:23.253Z,20.40
2023-07-25T07:28:53.608Z,20.50
2023-07-25T07:31:25.762Z,20.40
2023-07-25T07:33:56.341Z,20.40
2023-07-25T07:36:26.278Z,20.40
2023-07-25T07:38:56.537Z,20.40
2023-07-25T07:41:29.570Z,20.50
2023-07-25T07:44:00.093Z,20.70
2023-07-25T07:46:33.815Z,20.70
2023-07-25T07:49:04.352Z,20.80
2023-07-25T07:51:34.845Z,20.90
2023-07-25T07:54:04.950Z,21.00
2023-07-25T07:56:37.838Z,21.10
2023-07-25T07:59:08.074Z,21.10
2023-07-25T08:01:41.267Z,20.90
2023-07-25T08:04:12.670Z,20.70
2023-07-25T08:06:42.873Z,20.40
2023-07-25T08:09:13.107Z,20.30
2023-07-25T08:11:45.915Z,20.20
2023-07-25T08:14:16.151Z,20.40
2023-07-25T08:16:46.378Z,20.50
2023-07-25T08:19:16.718Z,20.60
2023-07-25T08:21:46.904Z,20.70
2023-07-25T08:24:17.344Z,20.90
2023-07-25T08:26:50.179Z,21.10
2023-07-25T08:29:20.370Z,21.40
2023-07-25T08:31:50.625Z,21.70
2023-07-25T08:34:21.702Z,22.00
2023-07-25T08:36:51.985Z,22.20
2023-07-25T08:39:22.197Z,22.40
2023-07-25T08:41:57.379Z,24.10
2023-07-25T08:44:29.188Z,27.20
2023-07-25T08:47:00.126Z,27.80
2023-07-25T08:49:33.971Z,27.30
2023-07-25T08:52:06.924Z,28.30
2023-07-25T08:54:39.047Z,30.20
2023-07-25T08:57:12.294Z,31.30
2023-07-25T08:59:42.946Z,31.10
2023-07-25T09:02:14.384Z,30.60
2023-07-25T09:04:44.950Z,29.30
2023-07-25T09:07:15.160Z,27.80
2023-07-25T09:09:45.087Z,26.30
2023-07-25T09:12:17.997Z,25.30
2023-07-25T09:14:48.357Z,24.90
2023-07-25T09:17:18.342Z,24.60
2023-07-25T09:19:48.498Z,24.60
2023-07-25T09:22:31.805Z,25.10
2023-07-25T09:25:02.915Z,25.30
2023-07-25T09:27:35.922Z,26.50
2023-07-25T09:30:15.971Z,26.90
2023-07-25T09:32:50.286Z,27.10
2023-07-25T09:35:20.979Z,26.50
2023-07-25T09:37:56.536Z,26.10
2023-07-25T09:40:27.107Z,25.80
2023-07-25T09:42:59.917Z,25.60
2023-07-25T09:45:30.267Z,25.70
2023-07-25T09:48:00.517Z,25.90
2023-07-25T09:50:36.869Z,26.40
2023-07-25T09:53:12.964Z,27.80
2023-07-25T09:55:43.020Z,30.70
2023-07-25T09:58:16.238Z,31.50
2023-07-25T10:00:48.402Z,31.80
2023-07-25T10:03:18.979Z,34.60
2023-07-25T10:05:49.829Z,36.30
2023-07-25T10:08:21.255Z,37.60
2023-07-25T10:10:52.383Z,36.70
2023-07-25T10:13:25.435Z,35.60
2023-07-25T10:15:57.049Z,32.60
2023-07-25T10:18:28.811Z,30.70
2023-07-25T10:20:59.258Z,29.00
2023-07-25T10:23:35.877Z,30.50
2023-07-25T10:26:19.893Z,31.40
2023-07-25T10:28:53.809Z,33.40
2023-07-25T10:31:28.493Z,33.60
2023-07-25T10:34:02.199Z,31.30
2023-07-25T10:36:32.678Z,29.80
2023-07-25T10:39:10.969Z,31.40
2023-07-25T10:41:41.634Z,33.00
2023-07-25T10:44:14.410Z,33.10
2023-07-25T10:46:44.677Z,33.10
2023-07-25T10:49:18.523Z,32.90
2023-07-25T10:51:53.675Z,32.90
2023-07-25T10:54:25.654Z,32.60
2023-07-25T10:57:19.024Z,32.20
2023-07-25T11:00:05.889Z,32.40
2023-07-25T11:02:37.355Z,32.10
2023-07-25T11:05:26.315Z,32.10
2023-07-25T11:07:59.356Z,29.80
2023-07-25T11:10:31.993Z,27.90
2023-07-25T11:13:04.125Z,28.10
2023-07-25T11:15:47.310Z,26.90
2023-07-25T11:18:18.426Z,26.80
2023-07-25T11:21:01.101Z,26.30
2023-07-25T11:23:31.353Z,25.70
2023-07-25T11:26:04.159Z,26.40
2023-07-25T11:28:34.758Z,27.60
2023-07-25T11:31:07.752Z,28.10
2023-07-25T11:33:43.193Z,27.40
2023-07-25T11:36:13.406Z,26.80
2023-07-25T11:38:43.971Z,26.30
2023-07-25T11:41:14.174Z,26.10
2023-07-25T11:43:46.811Z,25.80
2023-07-25T11:46:22.462Z,25.60
2023-07-25T11:48:52.833Z,25.40
2023-07-25T11:51:23.313Z,25.00
2023-07-25T11:53:53.915Z,25.30
2023-07-25T11:56:24.187Z,25.30
2023-07-25T11:58:54.164Z,25.30
2023-07-25T12:01:31.042Z,25.30
2023-07-25T12:04:04.150Z,25.30
2023-07-25T12:06:36.029Z,25.30
2023-07-25T12:09:06.936Z,25.40
2023-07-25T12:11:44.858Z,25.40
2023-07-25T12:14:16.282Z,25.20
2023-07-25T12:16:49.937Z,25.20
2023-07-25T12:19:22.601Z,25.10
2023-07-25T12:21:52.886Z,25.30
2023-07-25T12:24:23.510Z,25.30
2023-07-25T12:26:55.769Z,24.90
2023-07-25T12:29:27.406Z,24.80
2023-07-25T12:32:00.189Z,24.80
2023-07-25T12:34:30.468Z,24.80
2023-07-25T12:37:02.266Z,24.60
2023-07-25T12:39:33.392Z,24.40
2023-07-25T12:42:03.594Z,24.30
2023-07-25T12:44:35.024Z,24.30
2023-07-25T12:47:08.510Z,24.20
2023-07-25T12:49:38.859Z,24.30
2023-07-25T12:52:09.440Z,24.30
2023-07-25T12:54:40.123Z,24.30
2023-07-25T12:57:10.561Z,24.20
2023-07-25T12:59:40.798Z,24.00
2023-07-25T13:02:13.616Z,23.90
2023-07-25T13:04:43.884Z,24.00
2023-07-25T13:07:14.123Z,24.00
2023-07-25T13:09:44.368Z,24.10
2023-07-25T13:12:14.532Z,24.10
2023-07-25T13:14:44.786Z,24.20
2023-07-25T13:17:17.583Z,24.20
2023-07-25T13:19:47.793Z,24.20
2023-07-25T13:22:18.310Z,24.10
2023-07-25T13:24:48.554Z,24.20
2023-07-25T13:27:18.742Z,24.10
2023-07-25T13:29:49.034Z,24.10
2023-07-25T13:32:21.612Z,24.10
2023-07-25T13:34:52.271Z,23.90
2023-07-25T13:37:22.475Z,24.00
2023-07-25T13:39:52.718Z,24.00
2023-07-25T13:42:23.905Z,24.00
2023-07-25T13:44:54.257Z,23.90
2023-07-25T13:47:27.401Z,23.80
2023-07-25T13:49:59.774Z,23.90
2023-07-25T13:52:30.028Z,23.80
2023-07-25T13:55:00.421Z,23.90
2023-07-25T13:57:32.510Z,23.90
2023-07-25T14:00:05.035Z,23.90
2023-07-25T14:02:38.991Z,23.80
2023-07-25T14:05:10.561Z,23.80
2023-07-25T14:07:40.753Z,23.80
2023-07-25T14:10:12.197Z,23.80
2023-07-25T14:12:42.366Z,23.80
2023-07-25T14:15:13.942Z,23.70
2023-07-25T14:17:46.765Z,23.70
2023-07-25T14:20:17.249Z,23.60
2023-07-25T14:25:18.058Z,23.80
2023-07-25T14:27:49.803Z,23.70
2023-07-25T14:30:20.172Z,23.70
2023-07-25T14:32:53.987Z,23.70
2023-07-25T14:35:24.467Z,23.60
2023-07-25T14:37:57.361Z,23.50
2023-07-25T14:40:28.942Z,23.50
2023-07-25T14:42:59.149Z,23.50
2023-07-25T14:45:29.854Z,23.50
2023-07-25T14:48:02.828Z,23.50
2023-07-25T14:50:33.947Z,23.40
2023-07-25T14:53:04.150Z,23.30
2023-07-25T14:55:34.769Z,23.20
2023-07-25T14:58:05.060Z,23.20
2023-07-25T15:00:35.389Z,23.30
2023-07-25T15:03:08.188Z,23.20
2023-07-25T15:05:38.525Z,23.30
2023-07-25T15:08:09.840Z,23.20
2023-07-25T15:10:41.712Z,23.20
2023-07-25T15:13:12.567Z,23.10
2023-07-25T15:15:42.846Z,23.00
2023-07-25T15:18:15.684Z,23.00
2023-07-25T15:20:46.220Z,22.90
2023-07-25T15:23:16.383Z,22.90
2023-07-25T15:25:46.607Z,22.90
2023-07-25T15:28:16.839Z,22.90
2023-07-25T15:30:47.042Z,22.90
2023-07-25T15:33:19.850Z,22.90
2023-07-25T15:35:50.162Z,22.90
2023-07-25T15:38:20.296Z,22.80
2023-07-25T15:40:50.591Z,22.80
2023-07-25T15:43:20.769Z,22.90
2023-07-25T15:45:51.061Z,22.80
2023-07-25T15:48:23.839Z,22.80
2023-07-25T15:50:54.642Z,22.90
2023-07-25T15:53:24.845Z,22.80
2023-07-25T15:55:55.199Z,22.70
2023-07-25T15:58:25.439Z,22.70
2023-07-25T16:00:55.745Z,22.70
2023-07-25T16:03:31.517Z,22.70
2023-07-25T16:06:02.115Z,22.60
2023-07-25T16:08:32.258Z,22.60
2023-07-25T16:11:02.606Z,22.60
2023-07-25T16:13:32.857Z,22.70
2023-07-25T16:18:35.838Z,22.60
2023-07-25T16:21:06.194Z,22.50
2023-07-25T16:23:36.405Z,22.50
2023-07-25T16:26:06.669Z,22.50
2023-07-25T16:28:37.012Z,22.40
2023-07-25T16:31:30.398Z,22.40
2023-07-25T16:34:00.319Z,22.50
2023-07-25T16:36:30.737Z,22.40
2023-07-25T16:39:01.007Z,22.40
2023-07-25T16:41:31.478Z,22.40
2023-07-25T16:44:04.219Z,22.50
2023-07-25T16:46:34.522Z,22.40
2023-07-25T16:49:07.936Z,22.40
2023-07-25T16:51:38.222Z,22.30
2023-07-25T16:54:09.208Z,22.40
2023-07-25T16:56:47.139Z,22.40
2023-07-25T16:59:17.447Z,22.50
2023-07-25T17:01:47.800Z,22.50
2023-07-25T17:04:20.688Z,22.50
2023-07-25T17:06:52.662Z,22.50
2023-07-25T17:09:22.915Z,22.50
2023-07-25T17:11:53.369Z,22.40
2023-07-25T17:14:23.271Z,22.30
2023-07-25T17:16:53.509Z,22.30
2023-07-25T17:19:29.759Z,22.30
2023-07-25T17:22:00.249Z,22.30
2023-07-25T17:24:30.942Z,22.30
2023-07-25T17:27:01.380Z,22.30
2023-07-25T17:29:31.335Z,22.20
2023-07-25T17:32:02.331Z,22.30
2023-07-25T17:34:35.442Z,22.30
2023-07-25T17:37:05.673Z,22.30
2023-07-25T17:39:38.826Z,22.30
2023-07-25T17:42:09.659Z,22.40
2023-07-25T17:44:40.164Z,22.30
2023-07-25T17:47:10.698Z,22.40
2023-07-25T17:49:43.494Z,22.40
2023-07-25T17:52:13.848Z,22.40
2023-07-25T17:54:44.028Z,22.50
2023-07-25T17:57:14.264Z,22.50
2023-07-25T17:59:44.460Z,22.50
2023-07-25T18:02:15.068Z,22.40
2023-07-25T18:04:48.024Z,22.40
2023-07-25T18:07:18.222Z,22.40
2023-07-25T18:09:48.421Z,22.30
2023-07-25T18:12:18.844Z,22.30
2023-07-25T18:14:48.797Z,22.30
2023-07-25T18:17:19.259Z,22.30
2023-07-25T18:19:51.827Z,22.30
2023-07-25T18:22:22.265Z,22.30
2023-07-25T18:24:52.188Z,22.20
2023-07-25T18:27:22.498Z,22.30
2023-07-25T18:29:52.678Z,22.30
2023-07-25T18:32:23.605Z,22.40
2023-07-25T18:34:56.360Z,22.30
2023-07-25T18:37:26.626Z,22.30
2023-07-25T18:39:56.768Z,22.30
2023-07-25T18:42:27.196Z,22.20
2023-07-25T18:44:57.442Z,22.10
2023-07-25T18:47:34.304Z,22.10
2023-07-25T18:50:08.620Z,22.00
2023-07-25T18:52:38.836Z,22.10
2023-07-25T18:55:10.567Z,22.00
2023-07-25T18:57:40.907Z,22.00
2023-07-25T19:00:12.745Z,21.90
2023-07-25T19:02:43.414Z,21.80
2023-07-25T19:05:16.406Z,21.70
2023-07-25T19:07:46.745Z,21.70
2023-07-25T19:10:18.844Z,21.70
2023-07-25T19:12:49.572Z,21.70
2023-07-25T19:15:23.249Z,21.80
2023-07-25T19:17:53.746Z,21.80
2023-07-25T19:20:26.660Z,21.80
2023-07-25T19:22:57.550Z,21.70
2023-07-25T19:25:30.648Z,21.70
2023-07-25T19:28:01.351Z,21.70
2023-07-25T19:30:31.650Z,21.70
2023-07-25T19:33:01.956Z,21.70
2023-07-25T19:35:34.832Z,21.70
2023-07-25T19:38:05.181Z,21.70
2023-07-25T19:40:36.737Z,21.60
2023-07-25T19:43:07.016Z,21.60
2023-07-25T19:45:37.184Z,21.60
2023-07-25T19:48:07.941Z,21.60
2023-07-25T19:50:46.298Z,21.50
2023-07-25T19:53:16.913Z,21.50
2023-07-25T19:55:54.616Z,21.50
2023-07-25T19:58:25.127Z,21.50
2023-07-25T20:00:55.081Z,21.60
2023-07-25T20:03:25.531Z,21.60
2023-07-25T20:05:58.647Z,21.60
2023-07-25T20:08:29.009Z,21.50
2023-07-25T20:11:04.530Z,21.30
2023-07-25T20:13:35.204Z,21.10
2023-07-25T20:16:05.881Z,20.90
2023-07-25T20:18:36.223Z,20.80
2023-07-25T20:21:12.529Z,20.50
2023-07-25T20:23:43.120Z,20.50
2023-07-25T20:26:13.425Z,20.80
2023-07-25T20:28:43.719Z,21.00
2023-07-25T20:31:13.970Z,21.00
2023-07-25T20:33:45.074Z,20.90
2023-07-25T20:36:18.382Z,20.70
2023-07-25T20:38:48.778Z,20.70
2023-07-25T20:41:19.005Z,20.60
2023-07-25T20:43:49.388Z,20.40
2023-07-25T20:46:19.591Z,20.20
2023-07-25T20:48:49.846Z,20.10
2023-07-25T20:51:22.642Z,20.20
2023-07-25T20:53:52.937Z,20.50
2023-07-25T20:56:23.148Z,20.40
2023-07-25T20:58:53.382Z,20.10
2023-07-25T21:01:23.576Z,20.10
2023-07-25T21:03:53.974Z,19.90
2023-07-25T21:06:28.852Z,19.60
2023-07-25T21:08:59.081Z,19.80
2023-07-25T21:11:29.246Z,19.80
2023-07-25T21:13:59.613Z,19.60
2023-07-25T21:16:31.211Z,19.90
2023-07-25T21:19:05.570Z,19.60
2023-07-25T21:21:38.385Z,19.20
2023-07-25T21:24:09.499Z,19.20
2023-07-25T21:26:39.663Z,19.00
2023-07-25T21:29:09.913Z,19.10
2023-07-25T21:31:40.460Z,18.90
2023-07-25T21:34:10.708Z,18.70
2023-07-25T21:36:43.721Z,18.70
2023-07-25T21:39:14.081Z,19.00
2023-07-25T21:41:44.398Z,19.20
2023-07-25T21:44:14.740Z,19.50
2023-07-25T21:46:44.961Z,19.10
2023-07-25T21:49:15.563Z,18.80
2023-07-25T21:51:48.344Z,18.60
2023-07-25T21:54:18.658Z,18.40
2023-07-25T21:56:51.063Z,18.40
2023-07-25T21:59:21.590Z,18.40
2023-07-25T22:01:54.567Z,18.30
2023-07-25T22:04:24.854Z,18.40
2023-07-25T22:06:57.744Z,18.40
2023-07-25T22:09:27.974Z,18.40
2023-07-25T22:11:58.172Z,18.50
2023-07-25T22:14:28.447Z,18.70
2023-07-25T22:16:58.650Z,18.50
2023-07-25T22:19:29.111Z,18.70
2023-07-25T22:22:02.029Z,17.20
2023-07-25T22:24:32.429Z,18.90
2023-07-25T22:27:02.653Z,18.90
2023-07-25T22:29:32.864Z,18.90
2023-07-25T22:32:03.117Z,18.80
2023-07-25T22:34:33.413Z,18.50
2023-07-25T22:37:06.269Z,18.50
2023-07-25T22:39:36.546Z,18.40
2023-07-25T22:42:06.942Z,18.30
2023-07-25T22:44:37.310Z,18.70
2023-07-25T22:47:07.961Z,18.50
2023-07-25T22:49:38.237Z,18.60
2023-07-25T22:52:11.356Z,18.40
2023-07-25T22:57:12.098Z,18.60
2023-07-25T22:59:42.316Z,18.50
2023-07-25T23:02:12.532Z,18.30
2023-07-25T23:04:42.823Z,18.30
2023-07-25T23:07:15.591Z,18.20
2023-07-25T23:09:45.965Z,18.10
2023-07-25T23:12:16.232Z,18.00
2023-07-25T23:14:46.762Z,18.00
2023-07-25T23:17:16.942Z,18.00
2023-07-25T23:19:47.347Z,17.90
2023-07-25T23:22:20.162Z,17.80
2023-07-25T23:24:50.472Z,17.80
2023-07-25T23:27:20.677Z,17.80
2023-07-25T23:29:50.922Z,17.80
2023-07-25T23:32:21.156Z,17.70
2023-07-25T23:34:54.549Z,17.70
2023-07-25T23:37:27.345Z,17.70
2023-07-25T23:39:57.773Z,17.70
2023-07-25T23:42:27.925Z,17.70
2023-07-25T23:44:58.689Z,17.70
2023-07-25T23:47:28.755Z,17.60
2023-07-25T23:49:59.158Z,17.60
2023-07-25T23:52:32.029Z,17.50
2023-07-25T23:55:02.497Z,17.50
2023-07-25T23:57:32.733Z,17.40
